Time;durP1;ratioP1;P1;durP2;ratioP2;P2;SDS_P1;SDS_P2;PMS_P1;PMS_P2;Temp;Humidity;BMP_temperature;BMP_pressure;BME280_temperature;BME280_humidity;BME280_pressure;Samples;Min_cycle;Max_cycle;Signal;HPM_P1;HPM_P2
2022/01/04 00:01:13;;;;;;;3.47;2.00;;;;;;;;;;5023447;28;20721;-57
2022/01/04 00:03:40;;;;;;;2.37;1.90;;;;;;;;;;5009876;28;20946;-56
2022/01/04 00:06:07;;;;;;;2.10;1.90;;;;;;;;;;5026292;28;20248;-56
2022/01/04 00:08:32;;;;;;;2.00;1.90;;;;;;;;;;5005993;28;20785;-56
2022/01/04 00:11:15;;;;;;;2.00;1.80;;;;;;;;;;5021111;28;20250;-56
2022/01/04 00:13:41;;;;;;;2.53;1.83;;;;;;;;;;4996756;28;20237;-56
2022/01/04 00:16:07;;;;;;;2.20;2.00;;;;;;;;;;5008599;28;20317;-56
2022/01/04 00:18:34;;;;;;;4.03;2.00;;;;;;;;;;5000210;28;20255;-56
2022/01/04 00:21:00;;;;;;;2.10;1.90;;;;;;;;;;5007191;28;20247;-57
2022/01/04 00:23:26;;;;;;;2.27;2.03;;;;;;;;;;5011336;28;20804;-56
2022/01/04 00:25:52;;;;;;;2.53;2.10;;;;;;;;;;5008694;28;20286;-57
2022/01/04 00:28:18;;;;;;;3.70;1.63;;;;;;;;;;5011301;28;20262;-56
2022/01/04 00:30:44;;;;;;;3.30;1.97;;;;;;;;;;5009934;28;20761;-56
2022/01/04 00:33:11;;;;;;;2.57;1.80;;;;;;;;;;5014111;28;20289;-57
2022/01/04 00:35:37;;;;;;;1.70;1.60;;;;;;;;;;5005799;28;20233;-56
2022/01/04 00:38:03;;;;;;;1.83;1.73;;;;;;;;;;5002435;28;20232;-56
2022/01/04 00:40:29;;;;;;;2.80;1.70;;;;;;;;;;4999195;28;20238;-57
2022/01/04 00:42:57;;;;;;;2.23;1.60;;;;;;;;;;4998504;28;20237;-57
2022/01/04 00:45:23;;;;;;;4.07;1.80;;;;;;;;;;4992920;28;20722;-57
2022/01/04 00:50:25;;;;;;;1.70;1.60;;;;;;;;;;5009210;28;20241;-57
2022/01/04 00:52:51;;;;;;;3.73;1.70;;;;;;;;;;5011274;28;20228;-56
2022/01/04 00:55:17;;;;;;;2.23;1.70;;;;;;;;;;5014637;28;20239;-57
2022/01/04 00:57:43;;;;;;;1.60;1.50;;;;;;;;;;5007795;28;20268;-57
2022/01/04 01:00:10;;;;;;;3.40;2.00;;;;;;;;;;5010816;28;20247;-56
2022/01/04 01:02:36;;;;;;;1.70;1.60;;;;;;;;;;5018429;28;20646;-56
2022/01/04 01:05:02;;;;;;;2.00;1.73;;;;;;;;;;5013539;28;20236;-56
2022/01/04 01:07:28;;;;;;;4.33;1.80;;;;;;;;;;5009377;28;20633;-56
2022/01/04 01:10:11;;;;;;;2.70;1.70;;;;;;;;;;5004824;28;20250;-56
2022/01/04 01:12:37;;;;;;;3.27;1.77;;;;;;;;;;4997947;28;20467;-56
2022/01/04 01:15:04;;;;;;;2.07;1.87;;;;;;;;;;4995504;28;20233;-56
2022/01/04 01:17:30;;;;;;;3.67;1.67;;;;;;;;;;5001409;28;20697;-56
2022/01/04 01:19:56;;;;;;;1.77;1.67;;;;;;;;;;5016210;28;20307;-56
2022/01/04 01:22:22;;;;;;;2.80;1.70;;;;;;;;;;5014414;28;20730;-56
2022/01/04 01:24:48;;;;;;;3.13;1.60;;;;;;;;;;5011627;28;20240;-57
2022/01/04 01:27:14;;;;;;;1.90;1.47;;;;;;;;;;5013074;28;20267;-57
2022/01/04 01:29:40;;;;;;;1.73;1.60;;;;;;;;;;5009858;28;20220;-57
2022/01/04 01:32:06;;;;;;;2.03;1.50;;;;;;;;;;4997712;28;20449;-56
2022/01/04 01:34:32;;;;;;;2.43;1.93;;;;;;;;;;5010243;28;20315;-57
2022/01/04 01:36:58;;;;;;;3.37;1.60;;;;;;;;;;5008637;28;20240;-57
2022/01/04 01:39:24;;;;;;;2.13;1.80;;;;;;;;;;5010531;28;20779;-57
2022/01/04 01:41:50;;;;;;;2.97;2.10;;;;;;;;;;5000927;28;20235;-57
2022/01/04 01:44:16;;;;;;;2.50;2.30;;;;;;;;;;5003079;28;20293;-57
2022/01/04 01:46:42;;;;;;;3.03;2.07;;;;;;;;;;5010871;28;20327;-57
2022/01/04 01:49:08;;;;;;;2.43;2.23;;;;;;;;;;5007278;28;20721;-56
2022/01/04 01:51:34;;;;;;;2.30;2.10;;;;;;;;;;5005220;28;20238;-57
2022/01/04 01:54:00;;;;;;;2.73;2.20;;;;;;;;;;5003403;28;20385;-56
2022/01/04 01:56:26;;;;;;;2.73;2.43;;;;;;;;;;5000385;28;20236;-56
2022/01/04 01:58:53;;;;;;;2.40;2.20;;;;;;;;;;5006055;28;20375;-57
2022/01/04 02:01:19;;;;;;;3.17;2.73;;;;;;;;;;5010512;28;20355;-56
2022/01/04 02:03:45;;;;;;;2.80;2.50;;;;;;;;;;5005684;28;20231;-56
2022/01/04 02:06:11;;;;;;;2.80;2.60;;;;;;;;;;4993017;28;20247;-56
2022/01/04 02:08:37;;;;;;;2.47;2.27;;;;;;;;;;5005950;28;20235;-56
2022/01/04 02:11:03;;;;;;;2.67;2.40;;;;;;;;;;5007137;28;21453;-57
2022/01/04 02:13:29;;;;;;;2.30;2.10;;;;;;;;;;5002625;28;20291;-57
2022/01/04 02:15:55;;;;;;;2.50;2.30;;;;;;;;;;5004200;28;20239;-56
2022/01/04 02:18:21;;;;;;;2.73;2.50;;;;;;;;;;5009193;28;20332;-57
2022/01/04 02:20:47;;;;;;;3.37;2.40;;;;;;;;;;5019456;28;20246;-56
2022/01/04 02:23:13;;;;;;;3.20;2.37;;;;;;;;;;5011331;28;20236;-57
2022/01/04 02:25:39;;;;;;;3.23;2.60;;;;;;;;;;4996296;28;21680;-56
2022/01/04 02:28:05;;;;;;;2.27;2.07;;;;;;;;;;5005307;28;20259;-56
2022/01/04 02:30:31;;;;;;;2.50;2.00;;;;;;;;;;5008469;28;20697;-57
2022/01/04 02:32:59;;;;;;;2.63;2.07;;;;;;;;;;5009661;28;20859;-57
2022/01/04 02:35:27;;;;;;;2.60;2.00;;;;;;;;;;5001340;28;20236;-56
2022/01/04 02:37:54;;;;;;;2.90;1.70;;;;;;;;;;4999549;28;20625;-56
2022/01/04 02:40:20;;;;;;;2.47;1.90;;;;;;;;;;5007188;28;20236;-56
2022/01/04 02:42:46;;;;;;;2.97;2.00;;;;;;;;;;5006751;28;20650;-56
2022/01/04 02:45:12;;;;;;;2.10;1.90;;;;;;;;;;4998010;28;20225;-56
2022/01/04 02:47:38;;;;;;;3.77;1.80;;;;;;;;;;5005590;28;20236;-56
2022/01/04 02:50:05;;;;;;;2.90;1.77;;;;;;;;;;4998464;28;20240;-56
2022/01/04 02:52:33;;;;;;;3.30;1.60;;;;;;;;;;5001209;28;20640;-56
2022/01/04 02:54:59;;;;;;;3.30;1.77;;;;;;;;;;5006416;28;20239;-56
2022/01/04 02:57:25;;;;;;;1.80;1.63;;;;;;;;;;4997636;28;20293;-56
2022/01/04 02:59:51;;;;;;;2.40;1.70;;;;;;;;;;4999518;28;20277;-56
2022/01/04 03:02:17;;;;;;;1.83;1.73;;;;;;;;;;4997030;28;20228;-57
2022/01/04 03:04:43;;;;;;;3.67;2.07;;;;;;;;;;4993033;28;20271;-56
2022/01/04 03:07:09;;;;;;;3.47;2.10;;;;;;;;;;4999239;28;20244;-57
2022/01/04 03:09:35;;;;;;;1.87;1.77;;;;;;;;;;4991961;28;20842;-56
2022/01/04 03:12:01;;;;;;;2.10;1.90;;;;;;;;;;4983748;28;20743;-56
2022/01/04 03:14:27;;;;;;;2.13;1.93;;;;;;;;;;4994949;28;20295;-56
2022/01/04 03:16:53;;;;;;;4.57;1.80;;;;;;;;;;5000207;28;20255;-56
2022/01/04 03:19:19;;;;;;;2.77;1.77;;;;;;;;;;5001835;28;20417;-56
2022/01/04 03:21:45;;;;;;;1.90;1.80;;;;;;;;;;4994127;28;20240;-56
2022/01/04 03:24:12;;;;;;;2.57;1.57;;;;;;;;;;4990588;28;20655;-56
2022/01/04 03:26:38;;;;;;;2.47;1.73;;;;;;;;;;4987689;28;20232;-56
2022/01/04 03:29:04;;;;;;;2.00;1.77;;;;;;;;;;4989845;28;20331;-56
2022/01/04 03:31:30;;;;;;;1.87;1.77;;;;;;;;;;4994106;28;20232;-57
2022/01/04 03:33:57;;;;;;;2.13;1.90;;;;;;;;;;4975791;28;20233;-57
2022/01/04 03:36:24;;;;;;;1.67;1.57;;;;;;;;;;4983310;28;20250;-57
2022/01/04 03:38:50;;;;;;;2.10;1.90;;;;;;;;;;4990131;28;20237;-57
2022/01/04 03:41:16;;;;;;;1.90;1.70;;;;;;;;;;4983636;28;20251;-57
2022/01/04 03:43:42;;;;;;;1.90;1.73;;;;;;;;;;4987440;28;20236;-57
2022/01/04 03:46:08;;;;;;;1.90;1.80;;;;;;;;;;4986441;28;20240;-57
2022/01/04 03:48:35;;;;;;;2.00;1.80;;;;;;;;;;4992714;28;20382;-57
2022/01/04 03:51:01;;;;;;;1.80;1.70;;;;;;;;;;4979994;28;20239;-57
2022/01/04 03:53:27;;;;;;;4.20;1.90;;;;;;;;;;4991354;28;21017;-57
2022/01/04 03:55:53;;;;;;;2.13;2.00;;;;;;;;;;5008310;28;20216;-57
2022/01/04 03:58:19;;;;;;;2.47;1.63;;;;;;;;;;4987957;28;20241;-56
2022/01/04 04:00:45;;;;;;;3.07;1.90;;;;;;;;;;5010764;28;20255;-57
2022/01/04 04:03:11;;;;;;;3.37;2.10;;;;;;;;;;5007859;28;20231;-58
2022/01/04 04:05:37;;;;;;;2.07;1.90;;;;;;;;;;4992296;28;20294;-57
2022/01/04 04:08:03;;;;;;;3.00;2.17;;;;;;;;;;4995040;28;20714;-57
2022/01/04 04:10:29;;;;;;;7.33;2.73;;;;;;;;;;4990220;28;20222;-57
2022/01/04 04:12:55;;;;;;;4.10;2.40;;;;;;;;;;4992453;28;20235;-57
2022/01/04 04:15:21;;;;;;;2.30;2.10;;;;;;;;;;5003153;28;20224;-57
2022/01/04 04:17:47;;;;;;;3.00;2.20;;;;;;;;;;5003972;28;20700;-57
2022/01/04 04:20:12;;;;;;;3.00;2.47;;;;;;;;;;5001912;28;20481;-57
2022/01/04 04:22:39;;;;;;;3.67;2.10;;;;;;;;;;4992364;28;20330;-57
2022/01/04 04:25:05;;;;;;;2.63;2.20;;;;;;;;;;4989576;28;20293;-57
2022/01/04 04:27:31;;;;;;;2.30;2.10;;;;;;;;;;5003926;28;21048;-57
2022/01/04 04:29:57;;;;;;;3.73;2.30;;;;;;;;;;4988427;28;20235;-57
2022/01/04 04:32:23;;;;;;;2.40;2.00;;;;;;;;;;4998174;28;20275;-56
2022/01/04 04:34:49;;;;;;;3.50;2.30;;;;;;;;;;4996387;28;20241;-57
2022/01/04 04:37:15;;;;;;;2.60;2.40;;;;;;;;;;4993204;28;21925;-57
2022/01/04 04:39:41;;;;;;;2.50;2.30;;;;;;;;;;5001741;28;20387;-56
2022/01/04 04:42:07;;;;;;;2.53;2.20;;;;;;;;;;4993621;28;20236;-57
2022/01/04 04:44:33;;;;;;;3.40;2.30;;;;;;;;;;4995297;28;20271;-57
2022/01/04 04:46:59;;;;;;;5.43;2.60;;;;;;;;;;5001351;28;20225;-57
2022/01/04 04:49:25;;;;;;;2.70;2.50;;;;;;;;;;4994798;28;20357;-56
2022/01/04 04:51:51;;;;;;;3.37;3.07;;;;;;;;;;5000449;28;20327;-57
2022/01/04 04:54:17;;;;;;;3.00;2.77;;;;;;;;;;4999932;28;20269;-56
2022/01/04 04:56:43;;;;;;;3.20;2.90;;;;;;;;;;4990310;28;21039;-57
2022/01/04 04:59:09;;;;;;;4.00;3.20;;;;;;;;;;4999863;28;20258;-58
2022/01/04 05:01:35;;;;;;;3.77;3.50;;;;;;;;;;4992461;28;20239;-57
2022/01/04 05:04:01;;;;;;;4.10;3.33;;;;;;;;;;5001338;28;20614;-57
2022/01/04 05:06:27;;;;;;;3.43;3.13;;;;;;;;;;4996766;28;20317;-57
2022/01/04 05:08:53;;;;;;;3.60;3.30;;;;;;;;;;4996455;28;20244;-56
2022/01/04 05:11:19;;;;;;;4.20;3.27;;;;;;;;;;4992360;28;20323;-57
2022/01/04 05:13:45;;;;;;;3.67;2.90;;;;;;;;;;4995394;28;20228;-57
2022/01/04 05:16:11;;;;;;;4.07;3.30;;;;;;;;;;4996700;28;20791;-57
2022/01/04 05:18:37;;;;;;;3.20;2.90;;;;;;;;;;5002286;28;20236;-57
2022/01/04 05:21:03;;;;;;;4.97;3.30;;;;;;;;;;4994083;28;20725;-57
2022/01/04 05:23:30;;;;;;;3.07;2.77;;;;;;;;;;4990134;28;20248;-57
2022/01/04 05:25:56;;;;;;;3.00;2.80;;;;;;;;;;4989994;28;20221;-57
2022/01/04 05:28:21;;;;;;;2.90;2.70;;;;;;;;;;4989262;28;20251;-57
2022/01/04 05:30:47;;;;;;;2.53;2.33;;;;;;;;;;4991655;28;20250;-57
2022/01/04 05:33:13;;;;;;;3.87;2.57;;;;;;;;;;5002003;28;21172;-57
2022/01/04 05:35:39;;;;;;;3.40;2.70;;;;;;;;;;4991287;28;20800;-57
2022/01/04 05:38:05;;;;;;;2.60;2.40;;;;;;;;;;4984405;28;20263;-57
2022/01/04 05:40:31;;;;;;;3.17;2.37;;;;;;;;;;4983270;28;20227;-56
2022/01/04 05:42:57;;;;;;;2.33;2.17;;;;;;;;;;4982944;28;20243;-57
2022/01/04 05:45:23;;;;;;;2.90;2.40;;;;;;;;;;4990242;28;20233;-57
2022/01/04 05:47:49;;;;;;;2.37;2.17;;;;;;;;;;5008106;28;20326;-57
2022/01/04 05:50:15;;;;;;;3.37;2.50;;;;;;;;;;5002674;28;20781;-57
2022/01/04 05:52:41;;;;;;;2.43;2.23;;;;;;;;;;4996070;28;20605;-56
2022/01/04 05:55:07;;;;;;;2.80;2.57;;;;;;;;;;4995420;28;20240;-57
2022/01/04 05:57:33;;;;;;;2.40;2.20;;;;;;;;;;5007231;28;20835;-56
2022/01/04 06:00:00;;;;;;;2.67;2.47;;;;;;;;;;4991749;28;20233;-57
2022/01/04 06:02:25;;;;;;;3.37;2.57;;;;;;;;;;4999879;28;20441;-57
2022/01/04 06:04:52;;;;;;;2.47;2.23;;;;;;;;;;4995670;28;20275;-56
2022/01/04 06:07:18;;;;;;;2.40;2.20;;;;;;;;;;4991015;28;20244;-57
2022/01/04 06:09:47;;;;;;;3.43;2.70;;;;;;;;;;5002076;28;20709;-57
2022/01/04 06:14:52;;;;;;;2.73;2.53;;;;;;;;;;4997813;28;20324;-57
2022/01/04 06:17:18;;;;;;;3.00;2.57;;;;;;;;;;4999287;28;20225;-56
2022/01/04 06:19:44;;;;;;;3.33;2.63;;;;;;;;;;4996880;28;20342;-58
2022/01/04 06:22:10;;;;;;;3.50;2.80;;;;;;;;;;4992341;28;20287;-57
2022/01/04 06:24:36;;;;;;;3.83;2.77;;;;;;;;;;4989869;28;20249;-57
2022/01/04 06:27:05;;;;;;;3.67;3.07;;;;;;;;;;4996573;28;20878;-56
2022/01/04 06:29:31;;;;;;;4.07;2.90;;;;;;;;;;4990715;28;20532;-57
2022/01/04 06:31:57;;;;;;;3.07;2.87;;;;;;;;;;4996781;28;21525;-57
2022/01/04 06:34:23;;;;;;;4.17;3.10;;;;;;;;;;4998363;28;20227;-56
2022/01/04 06:36:49;;;;;;;3.40;3.10;;;;;;;;;;4982944;28;20237;-57
2022/01/04 06:39:15;;;;;;;3.33;3.03;;;;;;;;;;4985230;28;20310;-57
2022/01/04 06:41:41;;;;;;;5.63;3.73;;;;;;;;;;4990606;28;20302;-57
2022/01/04 06:44:07;;;;;;;3.63;3.33;;;;;;;;;;4998864;28;20719;-57
2022/01/04 06:46:33;;;;;;;3.70;3.40;;;;;;;;;;4979651;28;20289;-57
2022/01/04 06:48:59;;;;;;;3.70;3.37;;;;;;;;;;4985600;28;20413;-56
2022/01/04 06:51:25;;;;;;;3.37;3.07;;;;;;;;;;4992419;28;20235;-57
2022/01/04 06:53:51;;;;;;;3.70;3.40;;;;;;;;;;5000823;28;20258;-57
2022/01/04 06:56:17;;;;;;;3.67;3.00;;;;;;;;;;4995286;28;20228;-57
2022/01/04 06:58:43;;;;;;;3.43;3.13;;;;;;;;;;4994165;28;20854;-57
2022/01/04 07:01:09;;;;;;;3.40;3.10;;;;;;;;;;4998259;28;20231;-57
2022/01/04 07:03:35;;;;;;;3.07;2.87;;;;;;;;;;5004745;28;20792;-57
2022/01/04 07:06:01;;;;;;;3.73;3.43;;;;;;;;;;5004023;28;20340;-57
2022/01/04 07:08:27;;;;;;;3.97;3.30;;;;;;;;;;5010178;28;20232;-57
2022/01/04 07:10:53;;;;;;;3.43;3.13;;;;;;;;;;5004455;28;20323;-57
2022/01/04 07:13:19;;;;;;;3.40;3.10;;;;;;;;;;5002381;28;20509;-57
2022/01/04 07:15:46;;;;;;;4.97;3.23;;;;;;;;;;5002926;28;20236;-57
2022/01/04 07:18:12;;;;;;;4.80;3.57;;;;;;;;;;4999807;28;20316;-57
2022/01/04 07:20:38;;;;;;;3.37;3.07;;;;;;;;;;5004788;28;20251;-57
2022/01/04 07:23:04;;;;;;;3.53;2.90;;;;;;;;;;5008512;28;22201;-57
2022/01/04 07:25:30;;;;;;;3.60;3.30;;;;;;;;;;4997263;28;20259;-57
2022/01/04 07:27:56;;;;;;;4.23;3.60;;;;;;;;;;4995905;28;20379;-57
2022/01/04 07:30:22;;;;;;;3.33;3.03;;;;;;;;;;5011658;28;20239;-57
2022/01/04 07:32:48;;;;;;;3.67;3.37;;;;;;;;;;5009916;28;20278;-57
2022/01/04 07:35:14;;;;;;;4.30;3.70;;;;;;;;;;5007728;28;20246;-56
2022/01/04 07:37:40;;;;;;;4.13;3.73;;;;;;;;;;5001408;28;20235;-57
2022/01/04 07:40:07;;;;;;;5.20;3.47;;;;;;;;;;4994734;28;20243;-57
2022/01/04 07:42:33;;;;;;;3.93;3.60;;;;;;;;;;4997531;28;20232;-56
2022/01/04 07:44:59;;;;;;;4.20;3.80;;;;;;;;;;4989527;28;20303;-57
2022/01/04 07:47:26;;;;;;;4.27;3.87;;;;;;;;;;4992329;28;20243;-56
2022/01/04 07:49:52;;;;;;;4.50;4.10;;;;;;;;;;4990504;28;20241;-57
2022/01/04 07:52:18;;;;;;;5.57;4.57;;;;;;;;;;5003675;28;20782;-57
2022/01/04 07:54:44;;;;;;;5.30;4.80;;;;;;;;;;5003009;28;20615;-57
2022/01/04 07:57:10;;;;;;;5.77;4.83;;;;;;;;;;4993210;28;20232;-57
2022/01/04 07:59:36;;;;;;;5.27;4.80;;;;;;;;;;5008680;28;20227;-57
2022/01/04 08:02:02;;;;;;;5.27;4.77;;;;;;;;;;5000477;28;20705;-57
2022/01/04 08:04:28;;;;;;;5.73;5.23;;;;;;;;;;5000027;28;20283;-56
2022/01/04 08:06:54;;;;;;;6.57;5.93;;;;;;;;;;4987639;28;20241;-56
2022/01/04 08:09:20;;;;;;;6.73;6.03;;;;;;;;;;4980972;28;20251;-56
2022/01/04 08:11:46;;;;;;;10.77;8.97;;;;;;;;;;4984608;28;20274;-57
2022/01/04 08:14:13;;;;;;;11.40;8.90;;;;;;;;;;4991933;28;20260;-57
2022/01/04 08:16:39;;;;;;;9.13;7.37;;;;;;;;;;4994404;28;20244;-56
2022/01/04 08:19:05;;;;;;;8.70;7.77;;;;;;;;;;4997240;28;20858;-56
2022/01/04 08:21:31;;;;;;;9.50;7.43;;;;;;;;;;4997739;28;20542;-57
2022/01/04 08:23:57;;;;;;;7.57;6.77;;;;;;;;;;4996610;28;20244;-58
2022/01/04 08:26:25;;;;;;;8.97;7.73;;;;;;;;;;4994141;28;20729;-59
2022/01/04 08:28:51;;;;;;;8.67;7.40;;;;;;;;;;5000174;28;20275;-58
2022/01/04 08:31:16;;;;;;;8.67;7.03;;;;;;;;;;4997348;28;20597;-58
2022/01/04 08:33:42;;;;;;;9.40;7.00;;;;;;;;;;4993443;28;20327;-58
2022/01/04 08:36:10;;;;;;;7.67;6.83;;;;;;;;;;4984449;28;20267;-58
2022/01/04 08:38:36;;;;;;;7.70;6.90;;;;;;;;;;4998002;28;20248;-58
2022/01/04 08:41:02;;;;;;;7.60;6.87;;;;;;;;;;5011866;28;20276;-58
2022/01/04 08:43:28;;;;;;;7.93;7.13;;;;;;;;;;5014225;28;20266;-58
2022/01/04 08:45:54;;;;;;;7.83;7.00;;;;;;;;;;5009730;28;20867;-58
2022/01/04 08:48:20;;;;;;;9.27;6.23;;;;;;;;;;5002283;28;21954;-58
2022/01/04 08:50:48;;;;;;;10.53;7.30;;;;;;;;;;5011875;28;20262;-58
2022/01/04 08:53:14;;;;;;;7.87;7.07;;;;;;;;;;5007660;28;20239;-58
2022/01/04 08:55:40;;;;;;;8.80;7.17;;;;;;;;;;5001072;28;20232;-58
2022/01/04 08:58:06;;;;;;;8.23;7.03;;;;;;;;;;5016542;28;20241;-57
2022/01/04 09:00:32;;;;;;;7.07;6.37;;;;;;;;;;5012266;28;20382;-58
2022/01/04 09:02:59;;;;;;;7.70;7.00;;;;;;;;;;5017983;28;20224;-57
2022/01/04 09:05:25;;;;;;;6.93;6.23;;;;;;;;;;4998344;28;20239;-58
2022/01/04 09:07:51;;;;;;;7.37;6.67;;;;;;;;;;5002975;28;20255;-58
2022/01/04 09:10:17;;;;;;;7.30;6.60;;;;;;;;;;5012091;28;20228;-58
2022/01/04 09:12:57;;;;;;;7.43;6.30;;;;;;;;;;5015260;28;20243;-58
2022/01/04 09:20:50;;;;;;;8.00;6.90;;;;;;;;;;5001189;28;20260;-58
2022/01/04 09:23:18;;;;;;;7.30;6.60;;;;;;;;;;5008333;28;20230;-57
2022/01/04 09:25:44;;;;;;;7.20;6.50;;;;;;;;;;5014030;28;20312;-57
2022/01/04 09:28:10;;;;;;;8.00;6.53;;;;;;;;;;4998438;28;20965;-57
2022/01/04 09:30:36;;;;;;;8.30;6.77;;;;;;;;;;4998252;28;20223;-57
2022/01/04 09:33:04;;;;;;;6.90;6.30;;;;;;;;;;4999046;28;20232;-58
2022/01/04 09:35:30;;;;;;;9.50;6.60;;;;;;;;;;4998125;28;20236;-58
2022/01/04 09:37:56;;;;;;;7.13;6.43;;;;;;;;;;4994790;28;20729;-58
2022/01/04 09:40:22;;;;;;;7.80;6.80;;;;;;;;;;4995709;28;20828;-58
2022/01/04 09:42:49;;;;;;;6.83;6.13;;;;;;;;;;4990121;28;20228;-57
2022/01/04 09:45:15;;;;;;;8.33;5.90;;;;;;;;;;4998842;28;20237;-58
2022/01/04 09:47:41;;;;;;;7.27;6.20;;;;;;;;;;5002992;28;20252;-57
2022/01/04 09:50:10;;;;;;;6.87;5.67;;;;;;;;;;4993832;28;20614;-58
2022/01/04 09:52:36;;;;;;;6.50;5.90;;;;;;;;;;5007435;28;20746;-58
2022/01/04 09:55:02;;;;;;;8.30;5.93;;;;;;;;;;5009204;28;20675;-58
2022/01/04 09:57:28;;;;;;;7.57;6.17;;;;;;;;;;5004150;28;20241;-58
2022/01/04 09:59:54;;;;;;;8.83;5.97;;;;;;;;;;5005975;28;20301;-58
2022/01/04 10:02:20;;;;;;;7.17;5.70;;;;;;;;;;5009228;28;20320;-57
2022/01/04 10:04:46;;;;;;;6.87;5.97;;;;;;;;;;5009445;28;20342;-58
2022/01/04 10:07:12;;;;;;;8.10;6.30;;;;;;;;;;4997782;28;20723;-58
2022/01/04 10:09:45;;;;;;;6.43;5.83;;;;;;;;;;4989619;28;20237;-58
2022/01/04 10:12:12;;;;;;;6.67;5.80;;;;;;;;;;5004367;28;20250;-58
2022/01/04 10:14:40;;;;;;;6.30;5.63;;;;;;;;;;4994995;28;20251;-58
2022/01/04 10:17:28;;;;;;;7.40;5.87;;;;;;;;;;4997252;28;20247;-58
2022/01/04 10:19:55;;;;;;;6.97;5.60;;;;;;;;;;5000009;28;20683;-58
2022/01/04 10:22:24;;;;;;;8.50;6.17;;;;;;;;;;4993124;28;20225;-58
2022/01/04 10:25:10;;;;;;;8.00;6.27;;;;;;;;;;4999740;28;20235;-58
2022/01/04 10:27:44;;;;;;;7.80;6.27;;;;;;;;;;4990141;28;20236;-58
2022/01/04 10:30:12;;;;;;;8.87;6.10;;;;;;;;;;5009208;28;20237;-58
2022/01/04 10:32:45;;;;;;;6.67;6.00;;;;;;;;;;5012114;28;20326;-58
2022/01/04 10:35:11;;;;;;;6.10;5.50;;;;;;;;;;5006728;28;20752;-58
2022/01/04 10:37:39;;;;;;;6.93;5.87;;;;;;;;;;5011735;28;20240;-58
2022/01/04 10:40:06;;;;;;;6.37;5.23;;;;;;;;;;5005906;28;20239;-58
2022/01/04 10:42:32;;;;;;;8.10;5.30;;;;;;;;;;5006225;28;20236;-58
2022/01/04 10:44:58;;;;;;;6.40;5.33;;;;;;;;;;5007539;28;20397;-58
2022/01/04 10:47:29;;;;;;;4.87;4.37;;;;;;;;;;5007205;28;20316;-57
2022/01/04 10:49:55;;;;;;;4.77;4.30;;;;;;;;;;5001891;28;20600;-58
2022/01/04 10:52:23;;;;;;;4.90;4.13;;;;;;;;;;5017041;28;20247;-59
2022/01/04 10:55:07;;;;;;;5.27;4.10;;;;;;;;;;5008470;28;21028;-58
2022/01/04 10:57:36;;;;;;;4.27;3.87;;;;;;;;;;5014440;28;20251;-58
2022/01/04 11:00:20;;;;;;;3.93;3.50;;;;;;;;;;5008657;28;20243;-58
2022/01/04 11:02:46;;;;;;;4.03;3.63;;;;;;;;;;5016811;28;20725;-57
2022/01/04 11:05:15;;;;;;;4.50;4.07;;;;;;;;;;5021905;28;20315;-59
2022/01/04 11:08:00;;;;;;;3.77;3.47;;;;;;;;;;5013349;28;22448;-58
2022/01/04 11:10:27;;;;;;;4.27;3.60;;;;;;;;;;5020529;28;20294;-58
2022/01/04 11:12:53;;;;;;;3.67;3.33;;;;;;;;;;5016290;28;20220;-58
2022/01/04 11:15:19;;;;;;;4.50;3.27;;;;;;;;;;5014888;28;20232;-58
2022/01/04 11:17:45;;;;;;;6.23;3.50;;;;;;;;;;5002249;28;20257;-58
2022/01/04 11:20:12;;;;;;;4.77;3.13;;;;;;;;;;5009115;28;20715;-58
2022/01/04 11:22:41;;;;;;;5.00;3.70;;;;;;;;;;5003866;28;20225;-58
2022/01/04 11:25:07;;;;;;;3.73;3.23;;;;;;;;;;5007449;28;20231;-58
2022/01/04 11:27:33;;;;;;;4.03;3.23;;;;;;;;;;5015045;28;20241;-58
2022/01/04 11:29:59;;;;;;;3.50;3.20;;;;;;;;;;5016871;28;20244;-58
2022/01/04 11:32:25;;;;;;;3.90;3.50;;;;;;;;;;5011470;28;20345;-58
2022/01/04 11:35:03;;;;;;;4.17;3.77;;;;;;;;;;5014520;28;20228;-57
2022/01/04 11:37:29;;;;;;;4.30;3.40;;;;;;;;;;5008246;28;20246;-58
2022/01/04 11:39:56;;;;;;;4.27;3.70;;;;;;;;;;5012457;28;20739;-58
2022/01/04 11:42:34;;;;;;;6.17;4.37;;;;;;;;;;5003770;28;20235;-58
2022/01/04 11:45:00;;;;;;;4.10;3.70;;;;;;;;;;5011005;28;20279;-58
2022/01/04 11:47:29;;;;;;;4.87;4.30;;;;;;;;;;5010748;28;20223;-58
2022/01/04 11:50:15;;;;;;;4.13;3.77;;;;;;;;;;5009105;28;20235;-58
2022/01/04 11:52:42;;;;;;;6.80;4.60;;;;;;;;;;5007555;28;20235;-58
2022/01/04 11:55:18;;;;;;;4.70;4.00;;;;;;;;;;5000929;28;20275;-58
2022/01/04 11:57:44;;;;;;;5.27;4.00;;;;;;;;;;5013348;28;20717;-58
2022/01/04 12:00:12;;;;;;;5.83;3.87;;;;;;;;;;5009228;28;20299;-58
2022/01/04 12:02:40;;;;;;;5.93;4.30;;;;;;;;;;5011876;28;20718;-58
2022/01/04 12:05:15;;;;;;;4.47;4.07;;;;;;;;;;5014941;28;20248;-58
2022/01/04 12:07:41;;;;;;;4.90;4.40;;;;;;;;;;5003808;28;20224;-57
2022/01/04 12:10:28;;;;;;;4.93;4.43;;;;;;;;;;5008787;28;20857;-58
2022/01/04 12:12:54;;;;;;;6.10;4.63;;;;;;;;;;4990860;28;20225;-58
2022/01/04 12:15:38;;;;;;;7.67;5.33;;;;;;;;;;5003685;28;20595;-58
2022/01/04 12:18:10;;;;;;;5.73;4.93;;;;;;;;;;5002939;28;20472;-58
2022/01/04 12:20:42;;;;;;;6.47;5.07;;;;;;;;;;5009529;28;20571;-58
2022/01/04 12:23:24;;;;;;;6.03;5.33;;;;;;;;;;5005200;28;24892;-58
2022/01/04 12:26:06;;;;;;;7.00;5.30;;;;;;;;;;4998195;28;20314;-58
2022/01/04 12:28:32;;;;;;;7.47;5.63;;;;;;;;;;4990560;28;20235;-58
2022/01/04 12:31:17;;;;;;;7.03;5.77;;;;;;;;;;4998285;28;20328;-58
2022/01/04 12:33:44;;;;;;;7.10;6.40;;;;;;;;;;4998425;28;20246;-58
2022/01/04 12:36:10;;;;;;;7.73;6.10;;;;;;;;;;4990275;28;20251;-58
2022/01/04 12:38:36;;;;;;;7.30;6.43;;;;;;;;;;5003633;28;20220;-58
2022/01/04 12:41:04;;;;;;;7.43;6.60;;;;;;;;;;5007018;28;20236;-57
2022/01/04 12:43:29;;;;;;;8.67;6.90;;;;;;;;;;5006417;28;20247;-58
2022/01/04 12:45:56;;;;;;;8.67;7.77;;;;;;;;;;4995680;28;20726;-58
2022/01/04 12:48:41;;;;;;;7.93;7.13;;;;;;;;;;5013405;28;20294;-58
2022/01/04 12:51:26;;;;;;;9.13;7.77;;;;;;;;;;5010231;28;20237;-58
2022/01/04 12:53:53;;;;;;;9.37;8.17;;;;;;;;;;5008685;28;20710;-58
2022/01/04 12:56:18;;;;;;;11.83;7.97;;;;;;;;;;5003232;28;20220;-58
2022/01/04 12:58:44;;;;;;;10.03;7.73;;;;;;;;;;5002405;28;20660;-58
2022/01/04 13:01:13;;;;;;;9.23;7.50;;;;;;;;;;5001100;28;21758;-58
2022/01/04 13:03:39;;;;;;;9.10;8.10;;;;;;;;;;4993918;28;20781;-58
2022/01/04 13:06:05;;;;;;;11.67;8.10;;;;;;;;;;4996242;28;20263;-58
2022/01/04 13:08:32;;;;;;;9.63;7.97;;;;;;;;;;5003637;28;20224;-58
2022/01/04 13:11:02;;;;;;;10.93;8.40;;;;;;;;;;5006659;28;21086;-58
2022/01/04 13:13:30;;;;;;;11.33;8.50;;;;;;;;;;5006005;28;20236;-59
2022/01/04 13:15:56;;;;;;;9.70;8.17;;;;;;;;;;5004600;28;20236;-58
2022/01/04 13:18:28;;;;;;;11.50;8.60;;;;;;;;;;4985676;28;20861;-57
2022/01/04 13:20:54;;;;;;;11.90;8.47;;;;;;;;;;5003429;28;20480;-58
2022/01/04 13:23:24;;;;;;;11.53;8.80;;;;;;;;;;4985699;28;20985;-58
2022/01/04 13:25:59;;;;;;;9.90;8.50;;;;;;;;;;5004692;28;21171;-58
2022/01/04 13:28:25;;;;;;;9.67;8.27;;;;;;;;;;4999597;28;20958;-57
2022/01/04 13:30:51;;;;;;;9.67;8.43;;;;;;;;;;4999123;28;20781;-58
2022/01/04 13:33:22;;;;;;;10.17;8.17;;;;;;;;;;4992561;28;20233;-56
2022/01/04 13:35:48;;;;;;;11.10;8.53;;;;;;;;;;4996103;28;20239;-58
2022/01/04 13:38:20;;;;;;;10.27;8.90;;;;;;;;;;4988971;28;20256;-58
2022/01/04 13:40:46;;;;;;;10.33;9.00;;;;;;;;;;5002988;28;20325;-58
2022/01/04 13:43:19;;;;;;;10.30;8.87;;;;;;;;;;5009496;28;20235;-58
2022/01/04 13:45:49;;;;;;;15.77;10.10;;;;;;;;;;5000382;28;20376;-58
2022/01/04 13:48:22;;;;;;;13.13;9.43;;;;;;;;;;4997223;28;20236;-57
2022/01/04 13:50:48;;;;;;;10.37;9.27;;;;;;;;;;5006947;28;20519;-58
2022/01/04 13:53:15;;;;;;;12.33;9.23;;;;;;;;;;4997970;28;20232;-58
2022/01/04 13:55:58;;;;;;;13.50;8.77;;;;;;;;;;5006814;28;20318;-58
2022/01/04 13:58:33;;;;;;;11.30;9.20;;;;;;;;;;5013220;28;20232;-58
2022/01/04 14:01:12;;;;;;;11.57;9.23;;;;;;;;;;4985201;28;20973;-57
2022/01/04 14:03:38;;;;;;;13.33;9.13;;;;;;;;;;4995187;28;20319;-58
2022/01/04 14:06:04;;;;;;;10.50;9.23;;;;;;;;;;4997626;28;20236;-58
2022/01/04 14:08:46;;;;;;;12.40;9.20;;;;;;;;;;5004141;28;20332;-58
2022/01/04 14:11:12;;;;;;;12.80;9.43;;;;;;;;;;4993064;28;20714;-58
2022/01/04 14:13:38;;;;;;;12.80;9.83;;;;;;;;;;5002045;28;20266;-58
2022/01/04 14:16:11;;;;;;;13.23;9.07;;;;;;;;;;4994827;28;20235;-58
2022/01/04 14:18:37;;;;;;;11.57;9.00;;;;;;;;;;4994596;28;20422;-58
2022/01/04 14:21:03;;;;;;;12.23;8.97;;;;;;;;;;5000975;28;20234;-58
2022/01/04 14:23:36;;;;;;;10.13;9.00;;;;;;;;;;5005666;28;20229;-58
2022/01/04 14:26:05;;;;;;;12.13;9.13;;;;;;;;;;5012853;28;20228;-58
2022/01/04 14:28:31;;;;;;;11.07;9.43;;;;;;;;;;4976864;28;20255;-58
2022/01/04 14:30:57;;;;;;;10.90;9.30;;;;;;;;;;4993513;28;20311;-58
2022/01/04 14:33:23;;;;;;;13.77;9.30;;;;;;;;;;4982265;28;21613;-58
2022/01/04 14:35:50;;;;;;;16.40;9.60;;;;;;;;;;5000078;28;21713;-57
2022/01/04 14:38:16;;;;;;;15.07;9.77;;;;;;;;;;4998102;28;20244;-57
2022/01/04 14:40:43;;;;;;;13.20;9.90;;;;;;;;;;5003798;28;20766;-58
2022/01/04 14:43:09;;;;;;;13.47;9.77;;;;;;;;;;5002010;28;20323;-57
2022/01/04 14:45:35;;;;;;;12.43;9.50;;;;;;;;;;4999342;28;20235;-58
2022/01/04 14:48:01;;;;;;;12.87;9.70;;;;;;;;;;4993816;28;20427;-58
2022/01/04 14:50:27;;;;;;;14.47;9.63;;;;;;;;;;5005723;28;20311;-57
2022/01/04 14:52:55;;;;;;;13.23;9.27;;;;;;;;;;5001891;28;20351;-58